sensor_id;sensor_type;location;lat;lon;timestamp;pressure;altitude;pressure_sealevel;temperature;humidity
29839;BME280;18669;53.356;-1.464;2023-03-26T00:02:17;99353.94;;;9.45;100.00
29839;BME280;18669;53.356;-1.464;2023-03-26T00:05:02;99359.41;;;9.38;100.00
29839;BME280;18669;53.356;-1.464;2023-03-26T00:07:47;99341.31;;;9.31;100.00
29839;BME280;18669;53.356;-1.464;2023-03-26T00:10:33;99349.00;;;9.35;100.00
29839;BME280;18669;53.356;-1.464;2023-03-26T00:13:18;99349.63;;;9.18;100.00
29839;BME280;18669;53.356;-1.464;2023-03-26T00:16:03;99338.94;;;9.23;100.00
29839;BME280;18669;53.356;-1.464;2023-03-26T00:18:49;99337.22;;;9.22;100.00
29839;BME280;18669;53.356;-1.464;2023-03-26T00:21:35;99352.25;;;9.42;100.00
29839;BME280;18669;53.356;-1.464;2023-03-26T00:24:20;99345.19;;;9.44;100.00
29839;BME280;18669;53.356;-1.464;2023-03-26T00:27:05;99339.94;;;9.44;100.00
29839;BME280;18669;53.356;-1.464;2023-03-26T00:29:52;99341.94;;;9.37;100.00
29839;BME280;18669;53.356;-1.464;2023-03-26T00:32:39;99337.94;;;9.27;100.00
29839;BME280;18669;53.356;-1.464;2023-03-26T00:35:24;99336.00;;;9.32;100.00
29839;BME280;18669;53.356;-1.464;2023-03-26T00:38:09;99341.22;;;9.34;100.00
29839;BME280;18669;53.356;-1.464;2023-03-26T00:40:54;99341.94;;;9.37;100.00
29839;BME280;18669;53.356;-1.464;2023-03-26T00:43:39;99346.78;;;9.24;100.00
29839;BME280;18669;53.356;-1.464;2023-03-26T00:46:26;99349.00;;;9.35;100.00
29839;BME280;18669;53.356;-1.464;2023-03-26T00:49:11;99343.94;;;9.31;100.00
29839;BME280;18669;53.356;-1.464;2023-03-26T00:51:58;99349.00;;;9.35;100.00
29839;BME280;18669;53.356;-1.464;2023-03-26T00:54:44;99344.50;;;9.39;100.00
29839;BME280;18669;53.356;-1.464;2023-03-26T00:57:29;99347.41;;;9.31;100.00
29839;BME280;18669;53.356;-1.464;2023-03-26T01:00:17;99341.94;;;9.37;100.00
29839;BME280;18669;53.356;-1.464;2023-03-26T01:03:03;99334.19;;;9.34;100.00
29839;BME280;18669;53.356;-1.464;2023-03-26T01:05:59;99345.69;;;9.30;100.00
29839;BME280;18669;53.356;-1.464;2023-03-26T01:08:51;99338.31;;;9.16;100.00
29839;BME280;18669;53.356;-1.464;2023-03-26T01:11:38;99335.97;;;9.08;100.00
29839;BME280;18669;53.356;-1.464;2023-03-26T01:14:24;99332.22;;;9.16;100.00
29839;BME280;18669;53.356;-1.464;2023-03-26T01:17:10;99340.09;;;9.16;100.00
29839;BME280;18669;53.356;-1.464;2023-03-26T01:20:07;99339.22;;;9.15;100.00
29839;BME280;18669;53.356;-1.464;2023-03-26T01:23:01;99330.44;;;9.16;100.00
29839;BME280;18669;53.356;-1.464;2023-03-26T01:25:55;99333.13;;;9.15;100.00
29839;BME280;18669;53.356;-1.464;2023-03-26T01:28:45;99336.72;;;8.87;100.00
29839;BME280;18669;53.356;-1.464;2023-03-26T01:34:49;99335.16;;;9.06;100.00
29839;BME280;18669;53.356;-1.464;2023-03-26T01:40:55;99323.81;;;9.06;100.00
29839;BME280;18669;53.356;-1.464;2023-03-26T01:46:29;99324.81;;;9.02;100.00
29839;BME280;18669;53.356;-1.464;2023-03-26T01:49:18;99322.56;;;8.91;100.00
29839;BME280;18669;53.356;-1.464;2023-03-26T01:52:10;99332.75;;;9.00;100.00
29839;BME280;18669;53.356;-1.464;2023-03-26T01:54:56;99333.94;;;8.91;100.00
29839;BME280;18669;53.356;-1.464;2023-03-26T02:00:54;99330.06;;;9.02;100.00
29839;BME280;18669;53.356;-1.464;2023-03-26T02:03:55;99324.28;;;8.92;100.00
29839;BME280;18669;53.356;-1.464;2023-03-26T02:06:52;99325.19;;;8.91;100.00
29839;BME280;18669;53.356;-1.464;2023-03-26T02:09:46;99326.72;;;8.98;100.00
29839;BME280;18669;53.356;-1.464;2023-03-26T02:12:34;99316.00;;;8.79;100.00
29839;BME280;18669;53.356;-1.464;2023-03-26T02:15:19;99319.69;;;8.73;100.00
29839;BME280;18669;53.356;-1.464;2023-03-26T02:18:04;99306.91;;;8.64;100.00
29839;BME280;18669;53.356;-1.464;2023-03-26T02:20:50;99319.69;;;8.73;100.00
29839;BME280;18669;53.356;-1.464;2023-03-26T02:23:41;99317.13;;;8.72;100.00
29839;BME280;18669;53.356;-1.464;2023-03-26T02:26:31;99313.66;;;8.71;100.00
29839;BME280;18669;53.356;-1.464;2023-03-26T02:29:16;99315.56;;;8.66;100.00
29839;BME280;18669;53.356;-1.464;2023-03-26T02:32:07;99308.50;;;8.68;100.00
29839;BME280;18669;53.356;-1.464;2023-03-26T02:34:56;99319.09;;;8.65;100.00
29839;BME280;18669;53.356;-1.464;2023-03-26T02:37:41;99314.03;;;8.60;100.00
29839;BME280;18669;53.356;-1.464;2023-03-26T02:40:30;99314.03;;;8.60;100.00
29839;BME280;18669;53.356;-1.464;2023-03-26T02:43:15;99320.06;;;8.62;100.00
29839;BME280;18669;53.356;-1.464;2023-03-26T02:46:00;99313.13;;;8.61;100.00
29839;BME280;18669;53.356;-1.464;2023-03-26T02:48:45;99309.59;;;8.62;100.00
29839;BME280;18669;53.356;-1.464;2023-03-26T02:51:30;99313.13;;;8.61;100.00
29839;BME280;18669;53.356;-1.464;2023-03-26T02:54:18;99308.69;;;8.63;100.00
29839;BME280;18669;53.356;-1.464;2023-03-26T02:57:03;99303.44;;;8.63;100.00
29839;BME280;18669;53.356;-1.464;2023-03-26T02:59:47;99316.28;;;8.71;100.00
29839;BME280;18669;53.356;-1.464;2023-03-26T03:02:33;99312.25;;;8.61;100.00
29839;BME280;18669;53.356;-1.464;2023-03-26T03:05:21;99308.78;;;8.60;100.00
29839;BME280;18669;53.356;-1.464;2023-03-26T03:08:11;99303.78;;;8.53;100.00
29839;BME280;18669;53.356;-1.464;2023-03-26T03:11:11;99311.94;;;8.70;100.00
29839;BME280;18669;53.356;-1.464;2023-03-26T03:13:56;99311.22;;;8.38;100.00
29839;BME280;18669;53.356;-1.464;2023-03-26T03:16:41;99307.72;;;8.38;100.00
29839;BME280;18669;53.356;-1.464;2023-03-26T03:19:26;99303.19;;;8.43;100.00
29839;BME280;18669;53.356;-1.464;2023-03-26T03:22:11;99310.00;;;8.48;100.00
29839;BME280;18669;53.356;-1.464;2023-03-26T03:24:56;99301.44;;;8.43;100.00
29839;BME280;18669;53.356;-1.464;2023-03-26T03:27:43;99304.81;;;8.47;100.00
29839;BME280;18669;53.356;-1.464;2023-03-26T03:30:28;99303.47;;;8.35;100.00
29839;BME280;18669;53.356;-1.464;2023-03-26T03:33:12;99308.44;;;8.43;100.00
29839;BME280;18669;53.356;-1.464;2023-03-26T03:35:57;99308.63;;;8.36;100.00
29839;BME280;18669;53.356;-1.464;2023-03-26T03:38:43;99309.50;;;8.37;100.00
29839;BME280;18669;53.356;-1.464;2023-03-26T03:41:28;99306.81;;;8.39;100.00
29839;BME280;18669;53.356;-1.464;2023-03-26T03:44:13;99306.91;;;8.35;100.00
29839;BME280;18669;53.356;-1.464;2023-03-26T03:46:59;99308.69;;;8.35;100.00
29839;BME280;18669;53.356;-1.464;2023-03-26T03:49:44;99315.84;;;8.30;100.00
29839;BME280;18669;53.356;-1.464;2023-03-26T03:52:28;99321.25;;;8.25;100.00
29839;BME280;18669;53.356;-1.464;2023-03-26T03:55:13;99315.03;;;8.28;100.00
29839;BME280;18669;53.356;-1.464;2023-03-26T03:57:58;99312.50;;;8.25;100.00
29839;BME280;18669;53.356;-1.464;2023-03-26T04:00:43;99311.78;;;8.21;100.00
29839;BME280;18669;53.356;-1.464;2023-03-26T04:03:28;99315.78;;;8.31;100.00
29839;BME280;18669;53.356;-1.464;2023-03-26T04:06:14;99315.69;;;8.34;100.00
29839;BME280;18669;53.356;-1.464;2023-03-26T04:09:02;99311.25;;;8.36;100.00
29839;BME280;18669;53.356;-1.464;2023-03-26T04:11:47;99318.31;;;8.34;100.00
29839;BME280;18669;53.356;-1.464;2023-03-26T04:14:34;99315.94;;;8.27;100.00
29839;BME280;18669;53.356;-1.464;2023-03-26T04:17:19;99321.28;;;8.24;100.00
29839;BME280;18669;53.356;-1.464;2023-03-26T04:20:09;99315.91;;;8.28;100.00
29839;BME280;18669;53.356;-1.464;2023-03-26T04:22:59;99330.66;;;8.31;100.00
29839;BME280;18669;53.356;-1.464;2023-03-26T04:25:53;99334.09;;;8.33;100.00
29839;BME280;18669;53.356;-1.464;2023-03-26T04:29:02;99333.38;;;8.28;100.00
29839;BME280;18669;53.356;-1.464;2023-03-26T04:31:49;99330.09;;;8.21;100.00
29839;BME280;18669;53.356;-1.464;2023-03-26T04:34:34;99330.53;;;8.07;100.00
29839;BME280;18669;53.356;-1.464;2023-03-26T04:40:19;99333.75;;;8.15;100.00
29839;BME280;18669;53.356;-1.464;2023-03-26T04:43:05;99336.06;;;7.98;100.00
29839;BME280;18669;53.356;-1.464;2023-03-26T04:45:50;99328.22;;;7.98;100.00
29839;BME280;18669;53.356;-1.464;2023-03-26T04:48:36;99336.69;;;8.06;100.00
29839;BME280;18669;53.356;-1.464;2023-03-26T04:51:25;99331.28;;;8.11;100.00
29839;BME280;18669;53.356;-1.464;2023-03-26T04:54:11;99340.22;;;8.05;100.00
29839;BME280;18669;53.356;-1.464;2023-03-26T04:56:59;99342.88;;;8.03;100.00
29839;BME280;18669;53.356;-1.464;2023-03-26T04:59:46;99341.38;;;7.95;100.00
29839;BME280;18669;53.356;-1.464;2023-03-26T05:02:31;99334.44;;;7.94;100.00
29839;BME280;18669;53.356;-1.464;2023-03-26T05:05:16;99346.34;;;8.04;100.00
29839;BME280;18669;53.356;-1.464;2023-03-26T05:08:01;99355.13;;;8.03;100.00
29839;BME280;18669;53.356;-1.464;2023-03-26T05:10:46;99354.25;;;8.02;100.00
29839;BME280;18669;53.356;-1.464;2023-03-26T05:13:31;99355.25;;;7.98;100.00
29839;BME280;18669;53.356;-1.464;2023-03-26T05:16:16;99354.66;;;7.88;100.00
29839;BME280;18669;53.356;-1.464;2023-03-26T05:19:00;99358.28;;;7.84;100.00
29839;BME280;18669;53.356;-1.464;2023-03-26T05:21:45;99363.69;;;7.78;100.00
29839;BME280;18669;53.356;-1.464;2023-03-26T05:24:30;99382.00;;;7.80;100.00
29839;BME280;18669;53.356;-1.464;2023-03-26T05:27:15;99381.31;;;7.73;100.00
29839;BME280;18669;53.356;-1.464;2023-03-26T05:30:01;99380.59;;;7.68;100.00
29839;BME280;18669;53.356;-1.464;2023-03-26T05:32:47;99386.97;;;7.57;100.00
29839;BME280;18669;53.356;-1.464;2023-03-26T05:35:32;99391.53;;;7.51;100.00
29839;BME280;18669;53.356;-1.464;2023-03-26T05:38:17;99401.94;;;7.52;100.00
29839;BME280;18669;53.356;-1.464;2023-03-26T05:41:05;99400.03;;;7.59;100.00
29839;BME280;18669;53.356;-1.464;2023-03-26T05:43:51;99400.03;;;7.59;100.00
29839;BME280;18669;53.356;-1.464;2023-03-26T05:46:35;99403.81;;;7.49;100.00
29839;BME280;18669;53.356;-1.464;2023-03-26T05:49:20;99411.59;;;7.52;100.00
29839;BME280;18669;53.356;-1.464;2023-03-26T05:52:05;99410.84;;;7.46;100.00
29839;BME280;18669;53.356;-1.464;2023-03-26T05:54:50;99418.44;;;7.56;100.00
29839;BME280;18669;53.356;-1.464;2023-03-26T05:57:35;99422.81;;;7.55;100.00
29839;BME280;18669;53.356;-1.464;2023-03-26T06:00:20;99422.94;;;7.51;100.00
29839;BME280;18669;53.356;-1.464;2023-03-26T06:03:05;99423.94;;;7.46;100.00
29839;BME280;18669;53.356;-1.464;2023-03-26T06:05:49;99430.13;;;7.42;100.00
29839;BME280;18669;53.356;-1.464;2023-03-26T06:08:34;99431.19;;;7.37;100.00
29839;BME280;18669;53.356;-1.464;2023-03-26T06:11:19;99432.69;;;7.44;100.00
29839;BME280;18669;53.356;-1.464;2023-03-26T06:14:05;99437.84;;;7.47;100.00
29839;BME280;18669;53.356;-1.464;2023-03-26T06:16:50;99436.03;;;7.51;100.00
29839;BME280;18669;53.356;-1.464;2023-03-26T06:19:35;99442.16;;;7.50;100.00
29839;BME280;18669;53.356;-1.464;2023-03-26T06:22:22;99445.63;;;7.50;100.00
29839;BME280;18669;53.356;-1.464;2023-03-26T06:25:15;99441.28;;;7.49;100.00
29839;BME280;18669;53.356;-1.464;2023-03-26T06:28:00;99459.81;;;7.41;100.00
29839;BME280;18669;53.356;-1.464;2023-03-26T06:30:49;99458.84;;;7.45;100.00
29839;BME280;18669;53.356;-1.464;2023-03-26T06:33:33;99466.78;;;7.42;100.00
29839;BME280;18669;53.356;-1.464;2023-03-26T06:36:18;99473.75;;;7.42;100.00
29839;BME280;18669;53.356;-1.464;2023-03-26T06:39:03;99479.94;;;7.39;100.00
29839;BME280;18669;53.356;-1.464;2023-03-26T06:41:48;99480.81;;;7.40;100.00
29839;BME280;18669;53.356;-1.464;2023-03-26T06:44:33;99485.22;;;7.38;100.00
29839;BME280;18669;53.356;-1.464;2023-03-26T06:47:18;99499.19;;;7.37;100.00
29839;BME280;18669;53.356;-1.464;2023-03-26T06:50:03;99494.53;;;7.48;100.00
29839;BME280;18669;53.356;-1.464;2023-03-26T06:52:48;99501.47;;;7.49;100.00
29839;BME280;18669;53.356;-1.464;2023-03-26T06:55:34;99495.41;;;7.49;100.00
29839;BME280;18669;53.356;-1.464;2023-03-26T06:58:19;99502.66;;;7.37;100.00
29839;BME280;18669;53.356;-1.464;2023-03-26T07:01:04;99510.50;;;7.37;100.00
29839;BME280;18669;53.356;-1.464;2023-03-26T07:03:49;99507.69;;;7.45;100.00
29839;BME280;18669;53.356;-1.464;2023-03-26T07:06:34;99514.34;;;7.58;100.00
29839;BME280;18669;53.356;-1.464;2023-03-26T07:09:19;99522.78;;;7.70;100.00
29839;BME280;18669;53.356;-1.464;2023-03-26T07:12:04;99516.44;;;7.77;100.00
29839;BME280;18669;53.356;-1.464;2023-03-26T07:14:49;99520.00;;;7.76;100.00
29839;BME280;18669;53.356;-1.464;2023-03-26T07:17:34;99532.00;;;7.83;100.00
29839;BME280;18669;53.356;-1.464;2023-03-26T07:20:21;99531.00;;;7.87;100.00
29839;BME280;18669;53.356;-1.464;2023-03-26T07:23:07;99540.00;;;7.77;100.00
29839;BME280;18669;53.356;-1.464;2023-03-26T07:25:53;99550.84;;;7.96;100.00
29839;BME280;18669;53.356;-1.464;2023-03-26T07:28:47;99550.53;;;8.09;100.00
29839;BME280;18669;53.356;-1.464;2023-03-26T07:31:42;99565.19;;;8.16;100.00
29839;BME280;18669;53.356;-1.464;2023-03-26T07:41:16;99571.81;;;8.28;100.00
29839;BME280;18669;53.356;-1.464;2023-03-26T07:46:48;99585.97;;;8.22;100.00
29839;BME280;18669;53.356;-1.464;2023-03-26T07:49:36;99592.94;;;8.23;100.00
29839;BME280;18669;53.356;-1.464;2023-03-26T07:52:22;99595.97;;;8.39;100.00
29839;BME280;18669;53.356;-1.464;2023-03-26T07:55:11;99594.13;;;8.43;100.00
29839;BME280;18669;53.356;-1.464;2023-03-26T08:00:57;99607.69;;;8.59;100.00
29839;BME280;18669;53.356;-1.464;2023-03-26T08:04:10;99615.78;;;8.51;100.00
29839;BME280;18669;53.356;-1.464;2023-03-26T08:07:07;99622.75;;;8.50;100.00
29839;BME280;18669;53.356;-1.464;2023-03-26T08:18:56;99619.44;;;8.75;100.00
29839;BME280;18669;53.356;-1.464;2023-03-26T08:21:52;99636.59;;;8.87;100.00
29839;BME280;18669;53.356;-1.464;2023-03-26T08:24:39;99635.53;;;8.93;100.00
29839;BME280;18669;53.356;-1.464;2023-03-26T08:27:50;99643.09;;;9.32;100.00
29839;BME280;18669;53.356;-1.464;2023-03-26T08:30:38;99648.16;;;9.38;100.00
29839;BME280;18669;53.356;-1.464;2023-03-26T08:33:25;99652.16;;;9.50;99.27
29839;BME280;18669;53.356;-1.464;2023-03-26T08:36:10;99660.09;;;9.49;97.98
29839;BME280;18669;53.356;-1.464;2023-03-26T08:38:55;99655.47;;;9.29;93.03
29839;BME280;18669;53.356;-1.464;2023-03-26T08:51:23;99683.25;;;10.93;82.75
29839;BME280;18669;53.356;-1.464;2023-03-26T09:00:58;99687.38;;;11.46;68.30
29839;BME280;18669;53.356;-1.464;2023-03-26T09:16:19;99724.69;;;10.08;70.78
29839;BME280;18669;53.356;-1.464;2023-03-26T09:20:02;99727.03;;;10.44;72.81
29839;BME280;18669;53.356;-1.464;2023-03-26T09:26:17;99735.72;;;10.20;73.51
29839;BME280;18669;53.356;-1.464;2023-03-26T09:41:29;99756.44;;;10.56;67.99
29839;BME280;18669;53.356;-1.464;2023-03-26T09:51:22;99787.41;;;9.92;69.09
29839;BME280;18669;53.356;-1.464;2023-03-26T09:57:43;99795.00;;;10.02;68.36
29839;BME280;18669;53.356;-1.464;2023-03-26T10:03:52;99794.81;;;10.62;65.59
29839;BME280;18669;53.356;-1.464;2023-03-26T10:06:49;99795.34;;;11.22;62.08
29839;BME280;18669;53.356;-1.464;2023-03-26T10:12:41;99804.50;;;11.59;62.35
29839;BME280;18669;53.356;-1.464;2023-03-26T10:15:35;99804.72;;;12.85;57.32
29839;BME280;18669;53.356;-1.464;2023-03-26T10:21:55;99807.22;;;14.78;48.58
29839;BME280;18669;53.356;-1.464;2023-03-26T10:25:14;99822.31;;;14.22;49.86
29839;BME280;18669;53.356;-1.464;2023-03-26T10:34:52;99837.75;;;13.75;48.71
29839;BME280;18669;53.356;-1.464;2023-03-26T10:38:00;99846.56;;;14.67;47.29
29839;BME280;18669;53.356;-1.464;2023-03-26T10:47:23;99867.91;;;13.10;48.24
29839;BME280;18669;53.356;-1.464;2023-03-26T10:53:14;99880.66;;;12.13;50.70
29839;BME280;18669;53.356;-1.464;2023-03-26T10:56:38;99888.19;;;12.00;51.13
29839;BME280;18669;53.356;-1.464;2023-03-26T10:59:25;99887.44;;;11.73;52.94
29839;BME280;18669;53.356;-1.464;2023-03-26T11:32:03;99954.53;;;11.88;55.32
29839;BME280;18669;53.356;-1.464;2023-03-26T11:37:53;99964.13;;;11.40;55.87
29839;BME280;18669;53.356;-1.464;2023-03-26T11:40:40;99976.66;;;11.06;57.17
29839;BME280;18669;53.356;-1.464;2023-03-26T11:43:34;99981.53;;;10.92;56.92
29839;BME280;18669;53.356;-1.464;2023-03-26T11:46:21;99981.44;;;10.95;57.21
29839;BME280;18669;53.356;-1.464;2023-03-26T11:49:11;99990.00;;;11.00;57.91
29839;BME280;18669;53.356;-1.464;2023-03-26T11:51:56;99993.09;;;11.40;56.96
29839;BME280;18669;53.356;-1.464;2023-03-26T11:54:41;99992.84;;;11.73;57.50
29839;BME280;18669;53.356;-1.464;2023-03-26T11:57:30;100002.88;;;12.36;55.66
29839;BME280;18669;53.356;-1.464;2023-03-26T12:00:17;100000.84;;;12.89;52.76
29839;BME280;18669;53.356;-1.464;2023-03-26T12:03:14;100010.16;;;12.75;52.89
29839;BME280;18669;53.356;-1.464;2023-03-26T12:05:58;100013.34;;;12.37;53.56
29839;BME280;18669;53.356;-1.464;2023-03-26T12:08:43;100009.91;;;12.12;54.13
29839;BME280;18669;53.356;-1.464;2023-03-26T12:11:29;100016.75;;;12.17;55.02
29839;BME280;18669;53.356;-1.464;2023-03-26T12:14:21;100015.66;;;11.99;56.36
29839;BME280;18669;53.356;-1.464;2023-03-26T12:17:12;100029.28;;;12.11;56.44
29839;BME280;18669;53.356;-1.464;2023-03-26T12:19:58;100019.69;;;13.86;52.50
29839;BME280;18669;53.356;-1.464;2023-03-26T12:22:44;100032.19;;;15.88;47.65
29839;BME280;18669;53.356;-1.464;2023-03-26T12:25:32;100032.13;;;16.55;44.87
29839;BME280;18669;53.356;-1.464;2023-03-26T12:28:18;100041.44;;;17.27;42.92
29839;BME280;18669;53.356;-1.464;2023-03-26T12:31:04;100045.56;;;17.17;41.01
29839;BME280;18669;53.356;-1.464;2023-03-26T12:34:05;100058.25;;;16.63;42.45
29839;BME280;18669;53.356;-1.464;2023-03-26T12:36:55;100072.53;;;16.61;40.81
29839;BME280;18669;53.356;-1.464;2023-03-26T12:39:41;100067.50;;;15.89;41.73
29839;BME280;18669;53.356;-1.464;2023-03-26T12:42:31;100080.75;;;15.54;43.13
29839;BME280;18669;53.356;-1.464;2023-03-26T12:45:19;100090.38;;;15.00;44.11
29839;BME280;18669;53.356;-1.464;2023-03-26T12:48:09;100093.66;;;14.08;44.95
29839;BME280;18669;53.356;-1.464;2023-03-26T12:54:20;100108.97;;;12.68;49.36
29839;BME280;18669;53.356;-1.464;2023-03-26T13:00:26;100132.94;;;12.13;49.96
29839;BME280;18669;53.356;-1.464;2023-03-26T13:15:21;100159.59;;;10.93;58.63
29839;BME280;18669;53.356;-1.464;2023-03-26T13:33:18;100175.47;;;10.89;63.01
29839;BME280;18669;53.356;-1.464;2023-03-26T13:47:58;100191.78;;;11.59;59.45
29839;BME280;18669;53.356;-1.464;2023-03-26T13:50:58;100191.31;;;11.73;59.07
29839;BME280;18669;53.356;-1.464;2023-03-26T13:56:42;100200.56;;;11.60;57.89
29839;BME280;18669;53.356;-1.464;2023-03-26T13:59:37;100204.94;;;11.59;58.04
29839;BME280;18669;53.356;-1.464;2023-03-26T14:02:32;100206.38;;;11.41;58.74
29839;BME280;18669;53.356;-1.464;2023-03-26T14:05:24;100219.75;;;11.35;60.31
29839;BME280;18669;53.356;-1.464;2023-03-26T14:08:20;100218.75;;;11.09;59.75
29839;BME280;18669;53.356;-1.464;2023-03-26T14:11:16;100214.28;;;10.81;61.73
29839;BME280;18669;53.356;-1.464;2023-03-26T14:14:06;100220.97;;;10.62;62.11
29839;BME280;18669;53.356;-1.464;2023-03-26T14:17:00;100226.44;;;10.54;63.33
29839;BME280;18669;53.356;-1.464;2023-03-26T14:26:18;100253.66;;;10.17;62.23
29839;BME280;18669;53.356;-1.464;2023-03-26T14:29:13;100261.28;;;9.91;61.96
29839;BME280;18669;53.356;-1.464;2023-03-26T14:35:22;100278.69;;;9.95;63.21
29839;BME280;18669;53.356;-1.464;2023-03-26T14:38:46;100276.03;;;9.97;66.03
29839;BME280;18669;53.356;-1.464;2023-03-26T14:41:44;100285.50;;;9.66;67.10
29839;BME280;18669;53.356;-1.464;2023-03-26T14:47:19;100290.47;;;9.79;68.28
29839;BME280;18669;53.356;-1.464;2023-03-26T14:50:34;100297.41;;;9.81;71.40
29839;BME280;18669;53.356;-1.464;2023-03-26T14:53:30;100298.44;;;9.76;69.98
29839;BME280;18669;53.356;-1.464;2023-03-26T14:56:58;100305.78;;;9.99;71.04
29839;BME280;18669;53.356;-1.464;2023-03-26T15:16:02;100360.22;;;10.32;69.59
29839;BME280;18669;53.356;-1.464;2023-03-26T15:25:19;100411.81;;;9.08;100.00
29839;BME280;18669;53.356;-1.464;2023-03-26T15:31:57;100417.97;;;8.53;100.00
29839;BME280;18669;53.356;-1.464;2023-03-26T15:41:14;100417.78;;;8.65;100.00
29839;BME280;18669;53.356;-1.464;2023-03-26T16:05:34;100449.91;;;8.79;100.00
29839;BME280;18669;53.356;-1.464;2023-03-26T16:08:41;100450.63;;;8.88;100.00
29839;BME280;18669;53.356;-1.464;2023-03-26T16:14:47;100477.88;;;8.80;100.00
29839;BME280;18669;53.356;-1.464;2023-03-26T16:33:15;100484.72;;;8.88;100.00
29839;BME280;18669;53.356;-1.464;2023-03-26T16:36:28;100496.09;;;8.88;94.40
29839;BME280;18669;53.356;-1.464;2023-03-26T16:39:37;100501.28;;;8.93;96.05
29839;BME280;18669;53.356;-1.464;2023-03-26T16:42:37;100512.66;;;8.92;92.39
29839;BME280;18669;53.356;-1.464;2023-03-26T16:45:28;100526.22;;;8.61;88.94
29839;BME280;18669;53.356;-1.464;2023-03-26T16:54:52;100522.78;;;8.57;84.91
29839;BME280;18669;53.356;-1.464;2023-03-26T17:00:29;100534.09;;;8.62;79.78
29839;BME280;18669;53.356;-1.464;2023-03-26T17:06:28;100550.47;;;8.78;74.60
29839;BME280;18669;53.356;-1.464;2023-03-26T17:12:41;100570.66;;;8.72;77.63
29839;BME280;18669;53.356;-1.464;2023-03-26T17:18:48;100593.59;;;8.56;88.63
29839;BME280;18669;53.356;-1.464;2023-03-26T17:24:41;100612.19;;;8.32;93.59
29839;BME280;18669;53.356;-1.464;2023-03-26T17:30:46;100626.25;;;8.27;98.94
29839;BME280;18669;53.356;-1.464;2023-03-26T17:33:36;100638.53;;;8.21;98.59
29839;BME280;18669;53.356;-1.464;2023-03-26T17:36:30;100643.91;;;8.09;100.00
29839;BME280;18669;53.356;-1.464;2023-03-26T17:39:21;100639.81;;;7.79;100.00
29839;BME280;18669;53.356;-1.464;2023-03-26T17:42:34;100641.75;;;7.56;100.00
29839;BME280;18669;53.356;-1.464;2023-03-26T17:45:21;100641.69;;;7.66;100.00
29839;BME280;18669;53.356;-1.464;2023-03-26T17:48:21;100653.94;;;7.64;100.00
29839;BME280;18669;53.356;-1.464;2023-03-26T17:51:45;100663.50;;;7.68;100.00
29839;BME280;18669;53.356;-1.464;2023-03-26T17:54:45;100674.78;;;7.76;100.00
29839;BME280;18669;53.356;-1.464;2023-03-26T18:00:32;100673.84;;;7.82;100.00
29839;BME280;18669;53.356;-1.464;2023-03-26T18:03:31;100685.19;;;7.82;100.00
29839;BME280;18669;53.356;-1.464;2023-03-26T18:21:29;100728.09;;;7.69;100.00
29839;BME280;18669;53.356;-1.464;2023-03-26T18:24:19;100711.44;;;7.74;100.00
29839;BME280;18669;53.356;-1.464;2023-03-26T18:27:10;100715.00;;;7.66;100.00
29839;BME280;18669;53.356;-1.464;2023-03-26T18:29:59;100718.47;;;7.71;100.00
29839;BME280;18669;53.356;-1.464;2023-03-26T18:33:19;100712.28;;;7.80;100.00
29839;BME280;18669;53.356;-1.464;2023-03-26T18:36:05;100707.97;;;7.72;100.00
29839;BME280;18669;53.356;-1.464;2023-03-26T18:38:50;100708.91;;;7.64;100.00
29839;BME280;18669;53.356;-1.464;2023-03-26T18:41:40;100724.56;;;7.73;100.00
29839;BME280;18669;53.356;-1.464;2023-03-26T18:44:26;100722.88;;;7.63;100.00
29839;BME280;18669;53.356;-1.464;2023-03-26T18:47:11;100732.44;;;7.65;100.00
29839;BME280;18669;53.356;-1.464;2023-03-26T18:49:56;100734.16;;;7.72;100.00
29839;BME280;18669;53.356;-1.464;2023-03-26T18:52:43;100744.59;;;7.77;100.00
29839;BME280;18669;53.356;-1.464;2023-03-26T18:55:29;100753.38;;;7.71;100.00
29839;BME280;18669;53.356;-1.464;2023-03-26T18:58:23;100763.84;;;7.76;100.00
29839;BME280;18669;53.356;-1.464;2023-03-26T19:01:09;100769.16;;;7.57;100.00
29839;BME280;18669;53.356;-1.464;2023-03-26T19:03:56;100783.94;;;7.66;100.00
29839;BME280;18669;53.356;-1.464;2023-03-26T19:06:43;100781.38;;;7.58;100.00
29839;BME280;18669;53.356;-1.464;2023-03-26T19:09:30;100791.81;;;7.66;100.00
29839;BME280;18669;53.356;-1.464;2023-03-26T19:12:18;100797.03;;;7.68;100.00
29839;BME280;18669;53.356;-1.464;2023-03-26T19:15:06;100794.44;;;7.68;100.00
29839;BME280;18669;53.356;-1.464;2023-03-26T19:17:57;100797.91;;;7.68;100.00
29839;BME280;18669;53.356;-1.464;2023-03-26T19:20:53;100807.47;;;7.72;100.00
29839;BME280;18669;53.356;-1.464;2023-03-26T19:23:39;100805.75;;;7.70;100.00
29839;BME280;18669;53.356;-1.464;2023-03-26T19:26:25;100811.91;;;7.61;100.00
29839;BME280;18669;53.356;-1.464;2023-03-26T19:29:13;100825.84;;;7.71;100.00
29839;BME280;18669;53.356;-1.464;2023-03-26T19:32:04;100822.31;;;7.73;100.00
29839;BME280;18669;53.356;-1.464;2023-03-26T19:34:50;100831.06;;;7.69;100.00
29839;BME280;18669;53.356;-1.464;2023-03-26T19:37:48;100825.78;;;7.79;100.00
29839;BME280;18669;53.356;-1.464;2023-03-26T19:40:33;100824.09;;;7.65;100.00
29839;BME280;18669;53.356;-1.464;2023-03-26T19:43:19;100824.13;;;7.64;100.00
29839;BME280;18669;53.356;-1.464;2023-03-26T19:46:04;100833.75;;;7.55;100.00
29839;BME280;18669;53.356;-1.464;2023-03-26T19:48:50;100837.16;;;7.71;100.00
29839;BME280;18669;53.356;-1.464;2023-03-26T19:51:36;100849.41;;;7.66;100.00
29839;BME280;18669;53.356;-1.464;2023-03-26T19:54:21;100850.31;;;7.60;100.00
29839;BME280;18669;53.356;-1.464;2023-03-26T19:57:07;100862.50;;;7.68;100.00
29839;BME280;18669;53.356;-1.464;2023-03-26T19:59:53;100859.09;;;7.55;98.17
29839;BME280;18669;53.356;-1.464;2023-03-26T20:02:39;100868.69;;;7.53;99.15
29839;BME280;18669;53.356;-1.464;2023-03-26T20:05:30;100866.91;;;7.56;95.37
29839;BME280;18669;53.356;-1.464;2023-03-26T20:08:16;100873.94;;;7.46;95.17
29839;BME280;18669;53.356;-1.464;2023-03-26T20:11:02;100877.41;;;7.52;95.82
29839;BME280;18669;53.356;-1.464;2023-03-26T20:13:48;100887.84;;;7.59;96.83